Time;durP1;ratioP1;P1;durP2;ratioP2;P2;SDS_P1;SDS_P2;PMS_P1;PMS_P2;Temp;Humidity;BMP_temperature;BMP_pressure;BME280_temperature;BME280_humidity;BME280_pressure;Samples;Min_cycle;Max_cycle;Signal;HPM_P1;HPM_P2
2021/12/10 00:02:22;;;;;;;120.90;85.80;;;;;;;-1.49;85.87;96631.77;106351;1323;22725;-59
2021/12/10 00:04:55;;;;;;;115.70;80.10;;;;;;;-1.53;86.10;96631.16;106346;1323;22646;-59
2021/12/10 00:07:30;;;;;;;115.60;80.70;;;;;;;-1.49;86.25;96627.55;106341;1323;22567;-59
2021/12/10 00:10:26;;;;;;;111.60;78.80;;;;;;;-1.46;85.97;96614.00;106340;1323;22599;-60
2021/12/10 00:12:55;;;;;;;;;;;;;;;-1.44;85.95;96602.11;106357;1323;22584;-60
2021/12/10 00:15:30;;;;;;;133.20;87.30;;;;;;;-1.47;86.07;96596.44;106341;1323;22468;-59
2021/12/10 00:18:21;;;;;;;147.10;92.00;;;;;;;-1.47;86.28;96587.68;106357;1322;22351;-60
2021/12/10 00:21:15;;;;;;;138.10;90.60;;;;;;;-1.49;86.19;96586.44;106208;1323;22522;-61
2021/12/10 00:24:24;;;;;;;125.80;83.60;;;;;;;-1.55;85.95;96591.67;106370;1323;22474;-59
2021/12/10 00:27:32;;;;;;;116.70;80.80;;;;;;;-1.57;85.99;96598.00;106271;1323;22397;-60
2021/12/10 00:30:44;;;;;;;118.70;83.90;;;;;;;-1.55;86.18;96590.78;106356;1322;22502;-61
2021/12/10 00:33:21;;;;;;;122.70;86.70;;;;;;;-1.53;86.15;96583.04;106329;1323;22269;-64
2021/12/10 00:35:55;;;;;;;128.50;89.00;;;;;;;-1.54;86.21;96586.55;106336;1323;22291;-59
2021/12/10 00:38:33;;;;;;;124.30;85.20;;;;;;;-1.56;86.09;96591.83;106372;1323;22688;-60
2021/12/10 00:41:04;;;;;;;119.90;79.80;;;;;;;-1.60;86.02;96585.04;106323;1323;23291;-59
2021/12/10 00:43:35;;;;;;;120.00;82.50;;;;;;;-1.56;86.11;96589.93;106283;1315;22551;-60
2021/12/10 00:46:18;;;;;;;113.40;82.90;;;;;;;-1.51;86.18;96593.35;106332;1323;23260;-60
2021/12/10 00:48:47;;;;;;;138.30;90.10;;;;;;;-1.48;86.30;96598.55;106344;1323;22521;-59
2021/12/10 00:51:15;;;;;;;147.10;90.80;;;;;;;-1.47;86.31;96597.40;106315;1323;22393;-59
2021/12/10 00:53:47;;;;;;;125.30;83.60;;;;;;;-1.47;86.10;96588.05;106354;1323;22302;-60
2021/12/10 00:56:15;;;;;;;109.80;78.80;;;;;;;-1.48;86.21;96572.77;106329;1321;22583;-61
2021/12/10 00:58:50;;;;;;;124.90;84.20;;;;;;;-1.48;85.92;96582.11;106319;1323;22541;-60
2021/12/10 01:01:26;;;;;;;139.40;89.30;;;;;;;-1.48;86.11;96590.30;106351;1323;23108;-61
2021/12/10 01:04:11;;;;;;;139.50;86.60;;;;;;;-1.47;86.29;96589.95;106354;1323;22613;-61
2021/12/10 01:06:48;;;;;;;142.90;96.20;;;;;;;-1.43;86.30;96582.58;106343;1323;22698;-60
2021/12/10 01:09:23;;;;;;;121.00;84.60;;;;;;;-1.45;86.27;96576.58;106352;1323;22380;-60
2021/12/10 01:11:55;;;;;;;;;;;;;;;-1.41;86.42;96571.23;106347;1323;22542;-60
2021/12/10 01:23:50;;;;;;;139.20;89.90;;;;;;;-1.51;85.98;96583.20;106239;1323;22478;-60
2021/12/10 01:29:22;;;;;;;107.90;80.30;;;;;;;-1.54;86.37;96573.14;106340;1323;22278;-60
2021/12/10 01:31:52;;;;;;;99.50;78.70;;;;;;;-1.49;86.30;96571.75;106339;1323;22403;-59
2021/12/10 01:34:25;;;;;;;95.90;75.70;;;;;;;-1.44;86.22;96577.48;106360;1323;22515;-59
2021/12/10 01:36:58;;;;;;;111.50;81.10;;;;;;;-1.38;86.53;96580.92;106325;1323;22584;-60
2021/12/10 01:39:39;;;;;;;128.50;87.70;;;;;;;-1.34;86.44;96579.26;106230;1323;22481;-59
2021/12/10 01:44:59;;;;;;;98.50;75.20;;;;;;;-1.34;86.21;96577.55;106342;1323;23120;-60
2021/12/10 01:47:33;;;;;;;101.30;78.80;;;;;;;-1.35;86.12;96574.54;106359;1323;22489;-60
2021/12/10 01:50:06;;;;;;;116.40;85.10;;;;;;;-1.34;86.26;96584.16;102635;1323;5021256;-60
2021/12/10 01:52:35;;;;;;;107.30;81.80;;;;;;;-1.29;86.34;96589.11;106365;1323;22478;-61
2021/12/10 01:55:05;;;;;;;114.50;79.80;;;;;;;-1.28;86.30;96586.95;106333;1323;22731;-60
2021/12/10 01:57:37;;;;;;;113.40;81.60;;;;;;;-1.29;86.36;96586.79;106336;1323;22426;-60
2021/12/10 02:00:09;;;;;;;105.60;77.80;;;;;;;-1.31;86.46;96588.93;106311;1322;22396;-60
2021/12/10 02:02:42;;;;;;;102.10;75.20;;;;;;;-1.28;86.37;96587.33;106340;1323;23647;-60
2021/12/10 02:05:12;;;;;;;96.60;74.70;;;;;;;-1.28;86.14;96591.02;106301;1323;22505;-59
2021/12/10 02:07:40;;;;;;;99.90;76.40;;;;;;;-1.25;86.44;96587.71;106326;1323;22487;-59
2021/12/10 02:10:11;;;;;;;102.70;78.60;;;;;;;-1.20;86.36;96582.61;106314;1323;23132;-59
2021/12/10 02:12:39;;;;;;;94.00;77.30;;;;;;;-1.22;86.25;96577.85;106307;1323;23201;-59
2021/12/10 02:15:11;;;;;;;118.20;83.30;;;;;;;-1.27;86.33;96581.58;106329;1323;22415;-60
2021/12/10 02:17:44;;;;;;;122.20;83.20;;;;;;;-1.30;86.20;96581.18;106326;1323;23211;-60
2021/12/10 02:20:20;;;;;;;116.30;84.60;;;;;;;-1.31;86.40;96578.84;106307;1323;23143;-60
2021/12/10 02:22:50;;;;;;;113.70;81.20;;;;;;;-1.29;86.10;96575.42;106316;1323;22305;-60
2021/12/10 02:25:25;;;;;;;115.40;81.90;;;;;;;-1.26;86.15;96572.27;106348;1323;22479;-59
2021/12/10 02:27:54;;;;;;;126.40;88.10;;;;;;;-1.21;86.28;96572.35;106317;1323;22492;-59
2021/12/10 02:30:28;;;;;;;127.80;88.40;;;;;;;-1.23;86.03;96572.81;106317;1323;23040;-59
2021/12/10 02:32:56;;;;;;;102.70;77.00;;;;;;;-1.27;86.14;96573.27;106357;1323;22458;-60
2021/12/10 02:35:27;;;;;;;101.40;78.80;;;;;;;-1.25;86.17;96566.36;106332;1323;22489;-60
2021/12/10 02:37:56;;;;;;;94.10;78.20;;;;;;;-1.25;86.18;96563.23;106294;1323;23236;-60
2021/12/10 02:40:26;;;;;;;101.80;80.30;;;;;;;-1.24;86.08;96561.40;106311;1323;22394;-60
2021/12/10 02:42:58;;;;;;;106.60;80.30;;;;;;;-1.25;86.10;96553.88;106325;1319;22499;-60
2021/12/10 02:45:28;;;;;;;112.70;83.00;;;;;;;-1.30;86.14;96536.31;106342;1321;22558;-60
2021/12/10 02:47:56;;;;;;;107.10;83.00;;;;;;;-1.30;86.36;96540.79;106321;1323;22429;-60
2021/12/10 02:50:30;;;;;;;92.50;73.80;;;;;;;-1.28;86.51;96543.30;106356;1323;22517;-60
2021/12/10 02:52:59;;;;;;;91.70;74.50;;;;;;;-1.31;86.15;96527.15;106323;1323;22465;-59
2021/12/10 02:55:30;;;;;;;101.70;76.40;;;;;;;-1.32;86.07;96525.60;106319;1323;22589;-59
2021/12/10 02:58:05;;;;;;;96.50;77.10;;;;;;;-1.31;86.09;96522.82;106333;1323;23038;-60
2021/12/10 03:00:59;;;;;;;105.70;80.60;;;;;;;-1.33;85.87;96515.21;106330;1323;22381;-60
2021/12/10 03:03:27;;;;;;;116.10;84.90;;;;;;;-1.35;86.28;96519.58;106286;1322;22492;-59
2021/12/10 03:05:56;;;;;;;112.70;78.20;;;;;;;-1.39;86.08;96522.89;106320;1323;22562;-60
2021/12/10 03:08:24;;;;;;;113.00;81.30;;;;;;;-1.43;85.91;96523.23;106321;1323;22493;-59
2021/12/10 03:10:52;;;;;;;106.70;79.90;;;;;;;-1.45;86.03;96521.26;106320;1323;22598;-59
2021/12/10 03:13:20;;;;;;;106.30;81.90;;;;;;;-1.45;86.11;96521.21;106339;1323;23091;-60
2021/12/10 03:15:50;;;;;;;125.80;85.10;;;;;;;-1.45;86.16;96509.54;106321;1323;22800;-59
2021/12/10 03:18:19;;;;;;;118.20;86.20;;;;;;;-1.48;86.09;96516.70;106354;1323;23200;-58
2021/12/10 03:20:48;;;;;;;115.30;82.80;;;;;;;-1.54;85.97;96519.41;106340;1323;23009;-59
2021/12/10 03:23:17;;;;;;;119.00;81.70;;;;;;;-1.56;86.18;96520.23;106330;1323;22345;-60
2021/12/10 03:25:45;;;;;;;105.70;81.50;;;;;;;-1.54;86.28;96518.05;106326;1323;22436;-60
2021/12/10 03:28:13;;;;;;;117.90;83.70;;;;;;;-1.51;86.10;96528.30;106321;1323;22424;-60
2021/12/10 03:30:46;;;;;;;118.20;84.80;;;;;;;-1.48;86.38;96518.97;106362;1322;22608;-60
2021/12/10 03:33:15;;;;;;;119.90;86.20;;;;;;;-1.46;86.46;96512.86;106337;1323;22383;-60
2021/12/10 03:35:48;;;;;;;123.50;86.70;;;;;;;-1.41;86.63;96522.25;106313;1323;22437;-60
2021/12/10 03:38:24;;;;;;;122.40;82.30;;;;;;;-1.40;86.23;96529.38;106353;1323;22420;-58
2021/12/10 03:40:53;;;;;;;124.70;82.40;;;;;;;-1.41;86.23;96532.64;106322;1323;22401;-61
2021/12/10 03:43:22;;;;;;;99.40;78.40;;;;;;;-1.38;86.26;96536.58;106350;1323;22508;-58
2021/12/10 03:45:55;;;;;;;106.30;81.00;;;;;;;-1.34;86.08;96534.96;106357;1323;22288;-58
2021/12/10 03:48:31;;;;;;;138.60;93.40;;;;;;;-1.31;86.47;96542.33;106339;1323;22478;-60
2021/12/10 03:51:02;;;;;;;121.90;87.00;;;;;;;-1.27;86.34;96550.11;106346;1323;22488;-61
2021/12/10 03:53:31;;;;;;;122.30;87.70;;;;;;;-1.32;86.16;96553.01;106348;1323;22583;-60
2021/12/10 03:56:12;;;;;;;159.60;96.20;;;;;;;-1.36;86.12;96555.41;106346;1323;23013;-60
2021/12/10 03:58:42;;;;;;;144.20;89.40;;;;;;;-1.35;86.24;96552.49;106331;1323;22411;-60
2021/12/10 04:01:13;;;;;;;151.10;91.50;;;;;;;-1.35;86.00;96554.92;106336;1323;22467;-60
2021/12/10 04:03:42;;;;;;;140.40;91.10;;;;;;;-1.37;85.82;96556.98;106349;1323;22460;-60
2021/12/10 04:06:11;;;;;;;146.70;93.60;;;;;;;-1.36;86.11;96560.00;106343;1323;22525;-60
2021/12/10 04:08:39;;;;;;;137.00;91.60;;;;;;;-1.38;86.17;96554.48;106347;1323;22382;-59
2021/12/10 04:11:08;;;;;;;115.30;82.60;;;;;;;-1.42;86.13;96556.23;106348;1323;23091;-59
2021/12/10 04:13:36;;;;;;;111.10;83.30;;;;;;;-1.43;86.12;96552.14;106344;1322;23318;-60
2021/12/10 04:16:04;;;;;;;120.70;82.90;;;;;;;-1.42;86.21;96549.98;106323;1323;23345;-59
2021/12/10 04:18:35;;;;;;;126.00;87.10;;;;;;;-1.39;86.17;96547.09;106340;1323;22497;-60
2021/12/10 04:21:08;;;;;;;134.70;90.50;;;;;;;-1.35;86.42;96544.69;106267;1323;22582;-59
2021/12/10 04:23:36;;;;;;;128.20;89.50;;;;;;;-1.28;86.44;96554.66;106349;1323;22475;-59
2021/12/10 04:26:04;;;;;;;138.40;91.70;;;;;;;-1.30;86.27;96556.23;106316;1322;22549;-59
2021/12/10 04:28:33;;;;;;;115.00;81.90;;;;;;;-1.36;86.06;96550.48;106251;1323;22308;-60
2021/12/10 04:31:01;;;;;;;103.40;79.70;;;;;;;-1.38;86.14;96551.27;106276;1323;22513;-59
2021/12/10 04:33:29;;;;;;;115.90;79.30;;;;;;;-1.31;86.32;96557.13;106232;1323;22420;-59
2021/12/10 04:35:59;;;;;;;124.80;85.70;;;;;;;-1.30;86.06;96559.50;106286;1323;22564;-60
2021/12/10 04:38:32;;;;;;;120.60;87.60;;;;;;;-1.32;85.96;96566.46;106291;1323;23050;-59
2021/12/10 04:41:06;;;;;;;137.60;91.30;;;;;;;-1.33;86.37;96566.73;106288;1323;22479;-59
2021/12/10 04:43:38;;;;;;;132.80;87.40;;;;;;;-1.33;86.27;96565.35;106266;1323;23353;-59
2021/12/10 04:46:07;;;;;;;123.00;86.70;;;;;;;-1.34;86.11;96568.94;106254;1323;22315;-60
2021/12/10 04:48:53;;;;;;;116.10;84.70;;;;;;;-1.37;86.19;96567.23;106235;1323;23264;-58
2021/12/10 04:51:25;;;;;;;123.60;87.80;;;;;;;-1.39;86.08;96567.75;106259;1323;22435;-60
2021/12/10 04:53:56;;;;;;;130.50;90.00;;;;;;;-1.39;86.42;96562.58;106268;1323;22393;-60
2021/12/10 04:56:26;;;;;;;142.40;92.60;;;;;;;-1.34;86.55;96568.84;106276;1323;22512;-60
2021/12/10 04:58:54;;;;;;;128.60;87.50;;;;;;;-1.31;86.29;96568.34;106290;1323;22589;-60
2021/12/10 05:01:23;;;;;;;134.90;85.30;;;;;;;-1.33;86.31;96570.11;106245;1316;22471;-59
2021/12/10 05:03:51;;;;;;;129.70;84.30;;;;;;;-1.30;86.32;96574.30;106347;1323;22423;-60
2021/12/10 05:06:19;;;;;;;121.40;87.40;;;;;;;-1.24;86.52;96575.40;106314;1323;23150;-59
2021/12/10 05:08:48;;;;;;;161.00;104.80;;;;;;;-1.18;86.47;96571.05;106292;1323;23175;-60
2021/12/10 05:11:16;;;;;;;162.00;106.30;;;;;;;-1.13;86.33;96574.08;106320;1323;23104;-59
2021/12/10 05:13:47;;;;;;;171.90;118.70;;;;;;;-1.18;86.15;96576.17;106304;1323;22520;-59
2021/12/10 05:16:17;;;;;;;187.60;126.30;;;;;;;-1.20;86.41;96577.70;106322;1323;22262;-61
2021/12/10 05:18:49;;;;;;;163.00;104.70;;;;;;;-1.21;86.35;96571.45;106321;1323;22602;-60
2021/12/10 05:21:18;;;;;;;133.60;91.00;;;;;;;-1.21;86.26;96569.53;106329;1322;23088;-60
2021/12/10 05:23:46;;;;;;;144.80;99.00;;;;;;;-1.15;86.39;96566.79;106326;1322;22297;-60
2021/12/10 05:26:14;;;;;;;149.90;101.00;;;;;;;-1.10;86.31;96559.19;106259;1323;22282;-60
2021/12/10 05:28:42;;;;;;;148.30;96.70;;;;;;;-1.09;86.20;96561.20;106282;1323;22440;-59
2021/12/10 05:31:10;;;;;;;147.10;99.80;;;;;;;-1.07;86.39;96559.36;106321;1323;22716;-59
2021/12/10 05:33:39;;;;;;;152.50;103.20;;;;;;;-1.07;86.44;96557.79;106342;1323;22405;-59
2021/12/10 05:36:07;;;;;;;145.80;94.20;;;;;;;-1.07;86.42;96552.55;106338;1323;22502;-59
2021/12/10 05:38:36;;;;;;;133.30;90.20;;;;;;;-1.05;86.35;96554.31;106279;1323;22291;-60
2021/12/10 05:41:09;;;;;;;142.20;92.80;;;;;;;-1.04;86.25;96551.29;106320;1323;22937;-60
2021/12/10 05:43:41;;;;;;;143.40;95.80;;;;;;;-1.03;86.31;96558.97;106314;1323;22464;-60
2021/12/10 05:46:12;;;;;;;146.90;98.30;;;;;;;-1.03;86.44;96557.86;106299;1323;22458;-59
2021/12/10 05:48:40;;;;;;;151.20;98.30;;;;;;;-1.04;86.25;96556.44;106343;1323;22517;-60
2021/12/10 05:51:10;;;;;;;141.50;93.60;;;;;;;-1.08;86.38;96551.65;106322;1323;22390;-60
2021/12/10 05:53:39;;;;;;;131.00;89.40;;;;;;;-1.08;86.33;96549.63;106307;1322;22301;-59
2021/12/10 05:56:07;;;;;;;131.40;89.00;;;;;;;-1.05;86.29;96549.92;106304;1323;23264;-60
2021/12/10 05:58:36;;;;;;;132.20;89.40;;;;;;;-1.02;86.26;96549.30;106359;1323;22930;-60
2021/12/10 06:01:12;;;;;;;143.10;92.80;;;;;;;-1.00;86.30;96546.93;106307;1323;22538;-61
2021/12/10 06:03:51;;;;;;;148.50;95.30;;;;;;;-0.98;86.42;96546.08;106286;1323;22208;-61
2021/12/10 06:06:21;;;;;;;154.00;96.60;;;;;;;-0.97;86.53;96543.40;106307;1323;22436;-59
2021/12/10 06:08:50;;;;;;;144.10;90.80;;;;;;;-0.98;86.29;96545.88;106295;1323;22511;-59
2021/12/10 06:11:19;;;;;;;131.40;88.70;;;;;;;-0.96;86.47;96545.46;106315;1323;23170;-59
2021/12/10 06:13:48;;;;;;;141.80;96.50;;;;;;;-0.94;86.32;96546.02;106317;1323;22505;-58
2021/12/10 06:16:16;;;;;;;165.30;106.20;;;;;;;-0.89;86.40;96548.14;106266;1322;22296;-59
2021/12/10 06:18:46;;;;;;;161.60;103.60;;;;;;;-0.89;86.40;96553.91;106287;1323;22487;-61
2021/12/10 06:21:14;;;;;;;146.20;98.20;;;;;;;-0.91;86.37;96560.98;106331;1323;22519;-61
2021/12/10 06:23:42;;;;;;;142.70;90.30;;;;;;;-0.94;86.47;96563.88;106232;1323;22393;-60
2021/12/10 06:26:11;;;;;;;121.40;87.50;;;;;;;-0.90;86.53;96565.33;106310;1323;22519;-59
2021/12/10 06:28:44;;;;;;;119.60;88.00;;;;;;;-0.88;86.40;96567.55;106302;1323;22353;-60
2021/12/10 06:31:18;;;;;;;141.50;93.00;;;;;;;-0.83;86.44;96566.57;106298;1322;22278;-60
2021/12/10 06:33:47;;;;;;;131.70;89.80;;;;;;;-0.82;86.11;96572.82;106321;1323;22503;-60
2021/12/10 06:36:17;;;;;;;161.60;104.60;;;;;;;-0.86;86.24;96577.29;106313;1322;22449;-59
2021/12/10 06:38:46;;;;;;;134.00;91.80;;;;;;;-0.90;86.43;96582.09;106325;1323;22433;-59
2021/12/10 06:41:16;;;;;;;140.10;93.10;;;;;;;-0.95;86.33;96584.92;106316;1323;22407;-59
2021/12/10 06:43:44;;;;;;;171.20;112.80;;;;;;;-0.99;86.42;96589.86;106303;1323;22414;-59
2021/12/10 06:46:13;;;;;;;159.00;102.90;;;;;;;-0.97;86.50;96586.86;106317;1323;22586;-59
2021/12/10 06:48:42;;;;;;;155.20;101.00;;;;;;;-0.95;86.44;96588.66;106305;1323;22525;-59
2021/12/10 06:51:20;;;;;;;152.80;96.60;;;;;;;-0.96;86.46;96592.23;106322;1323;22522;-59
2021/12/10 06:53:50;;;;;;;133.80;90.70;;;;;;;-0.99;86.49;96593.98;106283;1323;22512;-59
2021/12/10 06:56:21;;;;;;;126.30;87.60;;;;;;;-1.02;86.55;96595.41;106272;1322;22473;-59
2021/12/10 06:58:51;;;;;;;99.30;82.50;;;;;;;-0.96;86.72;96593.58;106323;1323;23767;-59
2021/12/10 07:01:26;;;;;;;123.40;87.90;;;;;;;-0.99;86.40;96594.52;106282;1323;22396;-59
2021/12/10 07:03:56;;;;;;;121.00;87.00;;;;;;;-1.03;86.46;96597.62;106308;1323;22513;-59
2021/12/10 07:06:26;;;;;;;109.80;82.10;;;;;;;-1.09;86.51;96596.95;106308;1323;22452;-60
2021/12/10 07:08:56;;;;;;;122.60;86.10;;;;;;;-1.11;86.87;96596.35;106287;1323;22820;-59
2021/12/10 07:11:25;;;;;;;135.00;91.50;;;;;;;-1.07;86.71;96597.44;106309;1323;22532;-60
2021/12/10 07:13:56;;;;;;;147.30;97.10;;;;;;;-1.02;86.76;96600.59;106331;1323;23145;-58
2021/12/10 07:16:26;;;;;;;159.00;96.50;;;;;;;-0.94;86.94;96594.08;106318;1323;22481;-60
2021/12/10 07:18:55;;;;;;;141.50;89.40;;;;;;;-0.89;86.98;96590.92;106314;1323;22497;-59
2021/12/10 07:21:24;;;;;;;164.10;91.10;;;;;;;-0.83;86.97;96591.11;106244;1323;22612;-60
2021/12/10 07:23:53;;;;;;;121.70;84.40;;;;;;;-0.79;86.83;96587.63;106269;1323;22383;-61
2021/12/10 07:26:21;;;;;;;125.00;84.20;;;;;;;-0.76;86.56;96589.08;106301;1323;23169;-59
2021/12/10 07:28:49;;;;;;;102.60;85.90;;;;;;;-0.77;86.36;96595.90;106303;1322;22337;-60
2021/12/10 07:31:18;;;;;;;111.70;85.00;;;;;;;-0.81;86.49;96595.61;106303;1323;22495;-60
2021/12/10 07:33:46;;;;;;;130.00;87.40;;;;;;;-0.83;86.66;96602.80;106322;1322;22502;-60
2021/12/10 07:36:15;;;;;;;107.80;81.60;;;;;;;-0.84;86.92;96600.56;106289;1323;22408;-59
2021/12/10 07:38:44;;;;;;;131.40;87.70;;;;;;;-0.76;86.72;96599.34;106310;1323;22402;-59
2021/12/10 07:41:12;;;;;;;118.20;88.60;;;;;;;-0.73;86.52;96595.54;106320;1323;22397;-59
2021/12/10 07:43:40;;;;;;;123.50;89.10;;;;;;;-0.70;86.59;96592.65;106321;1323;22509;-59
2021/12/10 07:46:09;;;;;;;152.20;101.40;;;;;;;-0.71;86.49;96591.22;106283;1323;23546;-59
2021/12/10 07:48:37;;;;;;;124.70;89.20;;;;;;;-0.75;86.52;96589.02;106310;1317;22621;-60
2021/12/10 07:51:10;;;;;;;116.00;86.60;;;;;;;-0.75;86.55;96597.33;106282;1323;22492;-60
2021/12/10 07:53:38;;;;;;;148.90;89.20;;;;;;;-0.70;86.66;96597.25;106296;1323;22464;-61
2021/12/10 07:56:08;;;;;;;152.40;94.50;;;;;;;-0.64;86.66;96593.48;106281;1323;22589;-60
2021/12/10 07:58:40;;;;;;;144.20;95.70;;;;;;;-0.62;86.67;96591.83;106271;1323;22422;-59
2021/12/10 08:01:16;;;;;;;143.20;97.70;;;;;;;-0.64;86.70;96594.48;106308;1322;23339;-59
2021/12/10 08:03:46;;;;;;;136.90;95.70;;;;;;;-0.65;86.68;96595.16;106282;1323;22419;-60
2021/12/10 08:06:15;;;;;;;130.00;93.20;;;;;;;-0.63;86.85;96596.64;106289;1323;22397;-59
2021/12/10 08:08:43;;;;;;;116.30;89.70;;;;;;;-0.53;86.73;96599.44;106337;1323;22437;-59
2021/12/10 08:11:12;;;;;;;129.30;96.30;;;;;;;-0.47;86.67;96606.98;106304;1322;22512;-59
2021/12/10 08:13:41;;;;;;;123.60;91.30;;;;;;;-0.39;86.85;96607.79;106338;1323;22915;-59
2021/12/10 08:16:09;;;;;;;115.30;88.00;;;;;;;-0.35;86.53;96609.02;106336;1323;22609;-59
2021/12/10 08:18:37;;;;;;;110.70;84.30;;;;;;;-0.36;86.33;96610.40;106366;1322;22506;-59
2021/12/10 08:21:06;;;;;;;101.70;81.70;;;;;;;-0.31;86.60;96608.50;106300;1323;22380;-58
2021/12/10 08:23:37;;;;;;;100.20;81.80;;;;;;;-0.25;86.57;96609.48;106267;1323;22474;-60
2021/12/10 08:26:07;;;;;;;134.80;92.90;;;;;;;-0.16;86.57;96607.16;106269;1322;23330;-60
2021/12/10 08:28:35;;;;;;;123.00;90.10;;;;;;;-0.11;86.52;96614.06;106315;1322;23130;-60
2021/12/10 08:31:05;;;;;;;117.50;87.80;;;;;;;-0.05;86.65;96614.50;106296;1323;22481;-60
2021/12/10 08:33:37;;;;;;;116.10;81.20;;;;;;;0.04;86.78;96617.59;106142;1319;22624;-61
2021/12/10 08:36:09;;;;;;;100.50;82.30;;;;;;;0.09;86.48;96623.00;106198;1316;138527;-60
2021/12/10 08:38:38;;;;;;;116.70;87.20;;;;;;;0.17;86.44;96624.87;106387;1322;22581;-60
2021/12/10 08:41:14;;;;;;;121.00;90.70;;;;;;;0.23;86.26;96625.56;106244;1325;22295;-60
2021/12/10 08:43:43;;;;;;;112.70;88.70;;;;;;;0.21;86.20;96620.48;106415;1322;22380;-60
2021/12/10 08:46:12;;;;;;;118.90;87.30;;;;;;;0.22;86.29;96620.59;106418;1322;23111;-60
2021/12/10 08:48:43;;;;;;;96.60;82.80;;;;;;;0.30;86.15;96618.26;106390;1316;23195;-60
2021/12/10 08:51:18;;;;;;;99.20;80.80;;;;;;;0.39;86.24;96619.70;106384;1322;22433;-60
2021/12/10 08:53:46;;;;;;;98.00;80.80;;;;;;;0.54;86.36;96614.19;106409;1322;22272;-60
2021/12/10 08:56:15;;;;;;;94.00;83.70;;;;;;;0.70;85.94;96610.63;106415;1322;22273;-60
2021/12/10 08:58:44;;;;;;;111.80;87.30;;;;;;;0.76;85.93;96610.73;106428;1319;23457;-60
2021/12/10 09:01:17;;;;;;;106.30;88.30;;;;;;;0.82;85.92;96607.23;106430;1322;22384;-60
2021/12/10 09:03:49;;;;;;;105.70;84.60;;;;;;;0.87;85.98;96610.08;106401;1322;22298;-59
2021/12/10 09:06:21;;;;;;;104.80;82.60;;;;;;;0.92;85.96;96609.73;106250;1321;137734;-60
2021/12/10 09:08:49;;;;;;;104.40;83.80;;;;;;;0.98;85.56;96615.05;106297;1318;22250;-60
2021/12/10 09:11:18;;;;;;;112.30;86.90;;;;;;;0.93;85.39;96616.91;106260;1323;22398;-60
2021/12/10 09:14:01;;;;;;;112.40;88.10;;;;;;;1.00;85.57;96612.39;106283;1321;22323;-61
2021/12/10 09:16:30;;;;;;;108.50;90.20;;;;;;;1.03;85.51;96611.12;106193;1323;23244;-60
2021/12/10 09:19:02;;;;;;;105.00;85.70;;;;;;;1.01;85.51;96610.90;106258;1323;22569;-60
2021/12/10 09:21:33;;;;;;;121.30;85.50;;;;;;;1.05;85.36;96607.75;106261;1323;22467;-60
2021/12/10 09:24:06;;;;;;;102.20;85.40;;;;;;;1.05;85.43;96607.40;106256;1323;22397;-60
2021/12/10 09:26:37;;;;;;;115.50;88.30;;;;;;;1.12;85.25;96605.25;106233;1323;22378;-60
2021/12/10 09:29:09;;;;;;;107.60;85.40;;;;;;;1.16;85.23;96604.08;106248;1323;23376;-60
2021/12/10 09:31:42;;;;;;;106.50;87.10;;;;;;;1.25;85.52;96598.42;106259;1323;23283;-60
2021/12/10 09:34:12;;;;;;;110.30;87.10;;;;;;;1.29;85.43;96596.08;106172;1324;22563;-60
2021/12/10 09:36:44;;;;;;;109.90;85.80;;;;;;;1.32;85.38;96592.55;106171;1323;138744;-60
2021/12/10 09:39:14;;;;;;;100.10;83.20;;;;;;;1.39;85.43;96594.18;106269;1323;22515;-60
2021/12/10 09:41:42;;;;;;;97.30;81.80;;;;;;;1.48;85.17;96594.77;106248;1318;22311;-59
2021/12/10 09:44:11;;;;;;;91.00;80.70;;;;;;;1.55;85.06;96595.44;106277;1323;22421;-60
2021/12/10 09:46:39;;;;;;;92.30;81.60;;;;;;;1.65;84.86;96593.11;106254;1323;22592;-60
2021/12/10 09:49:10;;;;;;;94.70;78.70;;;;;;;1.72;84.97;96586.33;105996;1323;395213;-59
2021/12/10 09:51:46;;;;;;;89.70;78.00;;;;;;;1.78;84.72;96580.67;106250;1323;23130;-60
2021/12/10 09:54:17;;;;;;;92.40;79.40;;;;;;;1.87;84.80;96579.71;106229;1324;23151;-60
2021/12/10 09:56:50;;;;;;;97.80;83.50;;;;;;;1.95;84.91;96575.05;106249;1323;22262;-58
2021/12/10 09:59:19;;;;;;;94.20;77.70;;;;;;;2.03;84.48;96576.48;106266;1323;22548;-60
2021/12/10 10:01:51;;;;;;;93.10;76.20;;;;;;;2.15;84.32;96577.30;106298;1323;22530;-59
2021/12/10 10:04:23;;;;;;;86.80;76.70;;;;;;;2.24;84.25;96574.58;106259;1323;22379;-60
2021/12/10 10:06:57;;;;;;;93.30;82.20;;;;;;;2.33;83.91;96565.11;106273;1323;22543;-59
2021/12/10 10:09:27;;;;;;;;;;;;;;;2.42;84.23;96557.96;106312;1323;23243;-60
2021/12/10 10:12:07;;;;;;;97.40;79.00;;;;;;;2.45;84.32;96556.76;106272;1323;22515;-61
2021/12/10 10:14:38;;;;;;;81.60;72.90;;;;;;;2.52;84.21;96557.61;106246;1323;22823;-59
2021/12/10 10:17:08;;;;;;;84.10;75.60;;;;;;;2.56;83.83;96557.14;106247;1323;23224;-59
2021/12/10 10:19:40;;;;;;;78.60;70.50;;;;;;;2.66;84.24;96559.93;106248;1323;22567;-59
2021/12/10 10:22:25;;;;;;;78.20;69.30;;;;;;;2.70;83.50;96553.29;106287;1323;22256;-60
2021/12/10 10:24:59;;;;;;;80.10;71.90;;;;;;;2.76;83.25;96555.58;106302;1323;22476;-59
2021/12/10 10:27:35;;;;;;;78.00;70.00;;;;;;;2.82;83.25;96557.55;106276;1323;22446;-59
2021/12/10 10:30:30;;;;;;;79.00;70.90;;;;;;;2.81;83.57;96554.61;106087;1316;137476;-60
2021/12/10 10:33:22;;;;;;;85.90;75.80;;;;;;;2.86;83.28;96554.52;106212;1316;22571;-60
2021/12/10 10:35:58;;;;;;;93.50;75.20;;;;;;;2.88;82.72;96554.50;106396;1322;22555;-60
2021/12/10 10:38:29;;;;;;;87.20;77.30;;;;;;;2.91;83.42;96550.05;106345;1323;22494;-59
2021/12/10 10:41:04;;;;;;;97.70;78.30;;;;;;;3.01;83.03;96550.86;106431;1322;22574;-60
2021/12/10 10:43:37;;;;;;;73.30;65.90;;;;;;;3.06;82.55;96550.00;106431;1322;22456;-59
2021/12/10 10:46:12;;;;;;;64.30;57.90;;;;;;;3.06;81.35;96549.67;106395;1321;22474;-60
2021/12/10 10:48:49;;;;;;;53.70;48.50;;;;;;;3.02;81.08;96552.98;106418;1322;22343;-59
2021/12/10 10:51:39;;;;;;;51.10;46.30;;;;;;;2.89;79.73;96555.71;106355;1315;22447;-60
2021/12/10 10:54:13;;;;;;;58.40;52.50;;;;;;;2.79;79.29;96552.14;106307;1314;22460;-59
2021/12/10 10:56:46;;;;;;;78.60;70.30;;;;;;;2.70;78.79;96552.92;106289;1315;22413;-59
2021/12/10 10:59:24;;;;;;;41.80;37.40;;;;;;;2.64;77.98;96553.10;106361;1315;22432;-59
2021/12/10 11:02:11;;;;;;;39.80;35.70;;;;;;;2.54;77.90;96554.03;106431;1322;22560;-59
2021/12/10 11:05:13;;;;;;;39.80;35.80;;;;;;;2.58;78.87;96558.83;106325;1322;22490;-59
2021/12/10 11:07:51;;;;;;;38.00;34.10;;;;;;;2.65;78.80;96556.38;106449;1322;22399;-59
2021/12/10 11:10:45;;;;;;;38.20;34.60;;;;;;;2.72;78.79;96560.29;106393;1321;22426;-63
2021/12/10 11:13:21;;;;;;;39.30;35.50;;;;;;;2.81;78.29;96565.80;106399;1322;22517;-60
2021/12/10 11:16:10;;;;;;;36.00;32.70;;;;;;;4.04;76.64;96563.92;106405;1322;22585;-60
2021/12/10 11:18:54;;;;;;;35.20;31.90;;;;;;;5.99;74.08;96561.23;106424;1322;22418;-59
2021/12/10 11:21:48;;;;;;;32.10;28.20;;;;;;;6.95;74.95;96559.17;106400;1322;22402;-60
2021/12/10 11:24:38;;;;;;;29.30;26.40;;;;;;;7.90;76.44;96560.98;106434;1322;22436;-59
2021/12/10 11:27:09;;;;;;;26.30;23.70;;;;;;;8.94;76.42;96556.41;106313;1322;22606;-60
2021/12/10 11:30:10;;;;;;;33.10;29.60;;;;;;;10.51;75.03;96555.59;106382;1322;22486;-59
2021/12/10 11:32:48;;;;;;;23.50;21.10;;;;;;;12.60;72.00;96550.92;106404;1322;22464;-60
2021/12/10 11:35:33;;;;;;;28.30;25.70;;;;;;;14.17;68.66;96544.61;106394;1322;22573;-61
2021/12/10 11:38:14;;;;;;;20.60;18.40;;;;;;;15.31;65.50;96545.96;106386;1322;22419;-58
2021/12/10 11:40:54;;;;;;;19.90;17.80;;;;;;;15.94;64.85;96542.85;106412;1322;22392;-59
2021/12/10 11:49:16;;;;;;;22.10;19.90;;;;;;;17.36;62.39;96540.29;106395;1322;22584;-59
2021/12/10 11:51:49;;;;;;;22.40;20.30;;;;;;;18.14;60.19;96537.11;106379;1322;22435;-60